Kezdőlap
METAR-TAF:

METAR-TAF

Repülőterek :

Coral Harbour, Nunavut, Kanada

földrajzi szélesség: 64-12N, földrajzi hosszúság: 083-22W, magasság: 64 m

Jelenlegi meteorológiai megfigyelések

A jelentés 1 órával és 19 perccel ezelõtt készült, 03:00 UTC
Észak-északkeleti szél 18 kt
Hőmérséklet -34°C
Páratartalom 67%
Légköri nyomás 1005 hPa
Látótávolság: 24.1 km
Kevés felhő 21000 lábon
Jégtű

METAR: CYZS 020300Z 03018KT 15SM IC FEW210 M34/M38 A2968 RMK CI1 CI TR SLP065

Idő: 23:19 (04:19 UTC)

Előrejelzés

A jelentés 3 órával és 41 perccel ezelõtt készült, 00:38 UTC
Az előrejelzés 02-én 01 óra UTC és 02-én 13 óra UTC között érvényes
Északkeleti szél 12 kt
Látótávolság: 10 km
Szórványos felhőzet 21000 lábon
02-én 02 óra UTC és 02-én 04 óra UTC között fokozatosan kialakuló
Északi szél 15 kt

TAF: CYZS 020038Z 0201/0213 04012KT P6SM SCT210 BECMG 0202/0204 35015KT RMK NXT FCST BY 020700Z

Meteorológiai megfigyelések és előrejelzések több, mint 4000 repülőtéren (METAR és TAF jelentéseket).

A térképen piros és sárga pontok jelzik az elérhető meteorológiai állomásokat.

Mozgassa az egeret a pont fölött, hogy megjelenjen az állomás neve.

Azután kattintson az időjárási megfigyelések és előrejelzések megtekintéséhez.

A térkép megváltoztatása: kattintson a fekete keresztel jelölt zöld gombra ráközelítéshez, a vonallal jelölt zöld gombra távolításhoz, vagy a zöld nyilakra a szomszédos térképek eléréséhez.


METAR-TAF: